createdAt,value
2018-05-26T00:00:50.016Z,102311.02
2018-05-26T00:03:16.837Z,102304.19
2018-05-26T00:05:43.795Z,102307.89
2018-05-26T00:08:11.398Z,102302.20
2018-05-26T00:10:38.188Z,102301.70
2018-05-26T00:13:05.000Z,102303.89
2018-05-26T00:15:37.895Z,102303.84
2018-05-26T00:18:05.661Z,102307.36
2018-05-26T00:20:32.486Z,102309.36
2018-05-26T00:23:02.209Z,102310.22
2018-05-26T00:25:30.088Z,102310.75
2018-05-26T00:27:57.219Z,102314.56
2018-05-26T00:30:24.744Z,102312.63
2018-05-26T00:32:52.305Z,102314.65
2018-05-26T00:35:19.124Z,102318.36
2018-05-26T00:37:45.909Z,102319.09
2018-05-26T00:40:12.698Z,102321.39
2018-05-26T00:42:39.524Z,102315.44
2018-05-26T00:45:06.401Z,102311.81
2018-05-26T00:47:33.394Z,102312.72
2018-05-26T00:50:00.175Z,102309.04
2018-05-26T00:52:26.945Z,102314.39
2018-05-26T00:54:53.769Z,102306.48
2018-05-26T00:57:21.357Z,102315.77
2018-05-26T00:59:48.149Z,102315.64
2018-05-26T01:02:15.724Z,102315.56
2018-05-26T01:04:42.513Z,102315.97
2018-05-26T01:07:09.304Z,102312.57
2018-05-26T01:09:36.173Z,102315.53
2018-05-26T01:12:02.974Z,102308.03
2018-05-26T01:14:30.492Z,102316.17
2018-05-26T01:16:57.317Z,102316.73
2018-05-26T01:19:24.117Z,102312.83
2018-05-26T01:21:50.992Z,102317.34
2018-05-26T01:24:17.813Z,102316.41
2018-05-26T01:26:45.341Z,102306.28
2018-05-26T01:29:12.180Z,102309.11
2018-05-26T01:31:38.967Z,102315.04
2018-05-26T01:34:05.805Z,102305.38
2018-05-26T01:36:33.516Z,102306.97
2018-05-26T01:39:00.288Z,102300.17
2018-05-26T01:41:27.048Z,102300.67
2018-05-26T01:43:54.612Z,102309.23
2018-05-26T01:46:21.534Z,102305.05
2018-05-26T01:48:48.325Z,102308.61
2018-05-26T01:51:15.160Z,102303.94
2018-05-26T01:53:41.957Z,102303.32
2018-05-26T01:56:08.735Z,102304.45
2018-05-26T01:58:35.593Z,102304.77
2018-05-26T02:01:02.395Z,102308.53
2018-05-26T02:03:29.192Z,102314.20
2018-05-26T02:05:56.069Z,102319.84
2018-05-26T02:08:22.871Z,102303.86
2018-05-26T02:10:49.746Z,102311.59
2018-05-26T02:13:16.545Z,102304.27
2018-05-26T02:15:44.060Z,102305.71
2018-05-26T02:18:10.893Z,102308.68
2018-05-26T02:20:37.735Z,102303.67
2018-05-26T02:23:05.324Z,102310.98
2018-05-26T02:25:32.113Z,102306.98
2018-05-26T02:27:58.945Z,102310.61
2018-05-26T02:30:25.737Z,102297.31
2018-05-26T02:32:52.530Z,102303.58
2018-05-26T02:35:19.427Z,102297.62
2018-05-26T02:37:46.210Z,102302.95
2018-05-26T02:40:14.137Z,102304.75
2018-05-26T02:42:40.924Z,102301.45
2018-05-26T02:45:08.445Z,102311.02
2018-05-26T02:47:35.360Z,102298.40
2018-05-26T02:50:02.151Z,102297.23
2018-05-26T02:52:29.385Z,102297.66
2018-05-26T02:54:56.171Z,102304.28
2018-05-26T02:57:23.686Z,102307.84
2018-05-26T02:59:51.302Z,102302.95
2018-05-26T03:02:18.083Z,102311.81
2018-05-26T03:04:51.005Z,102308.19
2018-05-26T03:07:24.568Z,102306.67
2018-05-26T03:09:58.824Z,102306.11
2018-05-26T03:12:32.496Z,102310.19
2018-05-26T03:14:59.199Z,102313.08
2018-05-26T03:17:32.041Z,102311.96
2018-05-26T03:19:59.246Z,102320.00
2018-05-26T03:22:26.068Z,102323.31
2018-05-26T03:24:52.841Z,102321.02
2018-05-26T03:27:19.668Z,102319.59
2018-05-26T03:29:46.556Z,102319.33
2018-05-26T03:32:14.138Z,102319.90
2018-05-26T03:34:41.367Z,102318.31
2018-05-26T03:37:08.147Z,102317.25
2018-05-26T03:39:34.965Z,102316.69
2018-05-26T03:42:01.793Z,102310.31
2018-05-26T03:44:29.348Z,102309.58
2018-05-26T03:46:56.220Z,102311.66
2018-05-26T03:49:22.999Z,102311.50
2018-05-26T03:51:49.848Z,102313.34
2018-05-26T03:54:16.707Z,102307.39
2018-05-26T03:57:02.077Z,102309.42
2018-05-26T03:59:39.830Z,102320.57
2018-05-26T04:02:06.961Z,102317.74
2018-05-26T04:04:33.764Z,102316.69
2018-05-26T04:07:00.580Z,102313.22
2018-05-26T04:09:28.620Z,102317.16
2018-05-26T04:11:55.405Z,102318.63
2018-05-26T04:14:22.915Z,102321.88
2018-05-26T04:16:50.472Z,102332.41
2018-05-26T04:19:18.043Z,102325.04
2018-05-26T04:21:44.824Z,102329.00
2018-05-26T04:24:12.380Z,102326.47
2018-05-26T04:26:39.897Z,102338.57
2018-05-26T04:29:06.678Z,102333.45
2018-05-26T04:31:33.545Z,102328.06
2018-05-26T04:34:00.322Z,102325.48
2018-05-26T04:36:27.095Z,102331.23
2018-05-26T04:38:53.916Z,102336.27
2018-05-26T04:41:20.696Z,102333.58
2018-05-26T04:43:47.536Z,102333.47
2018-05-26T04:46:15.103Z,102331.20
2018-05-26T04:48:42.663Z,102328.28
2018-05-26T04:51:10.604Z,102333.90
2018-05-26T04:53:39.927Z,102339.77
2018-05-26T04:56:06.877Z,102345.14
2018-05-26T04:58:34.440Z,102339.70
2018-05-26T05:01:01.964Z,102341.34
2018-05-26T05:03:28.797Z,102346.76
2018-05-26T05:05:55.572Z,102347.11
2018-05-26T05:08:22.395Z,102349.38
2018-05-26T05:10:49.222Z,102349.16
2018-05-26T05:13:15.990Z,102350.82
2018-05-26T05:15:42.765Z,102350.92
2018-05-26T05:18:10.864Z,102350.42
2018-05-26T05:20:37.905Z,102353.52
2018-05-26T05:23:04.707Z,102351.18
2018-05-26T05:25:31.536Z,102356.63
2018-05-26T05:27:58.349Z,102362.61
2018-05-26T05:30:25.185Z,102370.27
2018-05-26T05:32:52.793Z,102371.73
2018-05-26T05:35:19.581Z,102370.98
2018-05-26T05:37:46.415Z,102371.82
2018-05-26T05:40:13.946Z,102371.98
2018-05-26T05:42:40.773Z,102377.21
2018-05-26T05:45:08.349Z,102377.78
2018-05-26T05:47:35.133Z,102379.68
2018-05-26T05:50:02.020Z,102375.00
2018-05-26T05:52:28.818Z,102376.97
2018-05-26T05:54:55.653Z,102384.38
2018-05-26T05:57:22.478Z,102384.89
2018-05-26T05:59:49.304Z,102381.42
2018-05-26T06:02:16.087Z,102383.54
2018-05-26T06:04:42.873Z,102379.89
2018-05-26T06:07:09.704Z,102384.25
2018-05-26T06:09:36.527Z,102391.38
2018-05-26T06:12:03.654Z,102385.75
2018-05-26T06:14:30.472Z,102391.20
2018-05-26T06:16:57.257Z,102395.05
2018-05-26T06:19:24.097Z,102403.78
2018-05-26T06:21:50.946Z,102399.41
2018-05-26T06:24:17.740Z,102400.59
2018-05-26T06:26:44.861Z,102403.73
2018-05-26T06:29:11.657Z,102397.39
2018-05-26T06:31:39.228Z,102405.55
2018-05-26T06:34:06.108Z,102403.50
2018-05-26T06:36:32.912Z,102402.65
2018-05-26T06:39:00.472Z,102405.69
2018-05-26T06:41:28.104Z,102403.02
2018-05-26T06:43:54.891Z,102403.40
2018-05-26T06:46:22.020Z,102404.66
2018-05-26T06:48:49.560Z,102408.95
2018-05-26T06:51:16.655Z,102405.70
2018-05-26T06:53:43.443Z,102405.41
2018-05-26T06:56:10.227Z,102401.92
2018-05-26T06:58:37.202Z,102405.57
2018-05-26T07:01:03.986Z,102402.44
2018-05-26T07:03:30.782Z,102403.98
2018-05-26T07:05:57.846Z,102398.11
2018-05-26T07:08:24.637Z,102400.81
2018-05-26T07:10:51.516Z,102406.34
2018-05-26T07:13:18.309Z,102409.86
2018-05-26T07:15:45.100Z,102412.94
2018-05-26T07:18:12.215Z,102406.09
2018-05-26T07:20:38.997Z,102403.91
2018-05-26T07:23:05.831Z,102405.15
2018-05-26T07:25:32.664Z,102406.56
2018-05-26T07:28:00.192Z,102407.34
2018-05-26T07:30:26.973Z,102402.00
2018-05-26T07:32:53.815Z,102395.63
2018-05-26T07:35:20.645Z,102404.31
2018-05-26T07:37:48.208Z,102397.81
2018-05-26T07:40:15.060Z,102407.27
2018-05-26T07:42:42.583Z,102405.07
2018-05-26T07:45:09.409Z,102403.11
2018-05-26T07:47:36.339Z,102401.45
2018-05-26T07:50:03.261Z,102400.48
2018-05-26T07:52:30.524Z,102402.41
2018-05-26T07:57:31.003Z,102402.25
2018-05-26T07:59:58.576Z,102399.61
2018-05-26T08:02:25.372Z,102405.16
2018-05-26T08:04:52.377Z,102407.86
2018-05-26T08:07:19.207Z,102410.25
2018-05-26T08:09:46.035Z,102402.13
2018-05-26T08:12:12.864Z,102399.25
2018-05-26T08:14:39.641Z,102399.05
2018-05-26T08:17:06.522Z,102405.73
2018-05-26T08:19:33.517Z,102395.39
2018-05-26T08:22:00.340Z,102398.64
2018-05-26T08:24:27.159Z,102402.78
2018-05-26T08:26:54.681Z,102406.31
2018-05-26T08:29:22.281Z,102391.44
2018-05-26T08:31:49.804Z,102388.28
2018-05-26T08:34:16.591Z,102394.91
2018-05-26T08:36:43.456Z,102392.58
2018-05-26T08:39:10.240Z,102392.25
2018-05-26T08:41:37.007Z,102396.03
2018-05-26T08:44:04.864Z,102397.92
2018-05-26T08:46:31.643Z,102393.72
2018-05-26T08:48:58.467Z,102389.48
2018-05-26T08:51:26.387Z,102392.80
2018-05-26T08:53:53.156Z,102396.40
2018-05-26T08:56:19.932Z,102387.13
2018-05-26T08:58:46.748Z,102387.22
2018-05-26T09:01:13.564Z,102388.69
2018-05-26T09:03:40.392Z,102388.38
2018-05-26T09:06:07.242Z,102388.69
2018-05-26T09:08:34.021Z,102377.87
2018-05-26T09:11:00.845Z,102387.77
2018-05-26T09:13:27.738Z,102384.39
2018-05-26T09:15:54.564Z,102390.58
2018-05-26T09:18:22.081Z,102384.47
2018-05-26T09:20:48.861Z,102393.38
2018-05-26T09:23:16.797Z,102383.13
2018-05-26T09:25:44.372Z,102387.39
2018-05-26T09:28:11.164Z,102382.28
2018-05-26T09:30:38.740Z,102381.45
2018-05-26T09:33:05.525Z,102373.67
2018-05-26T09:35:32.347Z,102383.79
2018-05-26T09:37:59.921Z,102384.00
2018-05-26T09:40:26.745Z,102383.06
2018-05-26T09:42:53.527Z,102379.67
2018-05-26T09:45:26.281Z,102374.78
2018-05-26T09:47:53.424Z,102375.14
2018-05-26T09:50:20.995Z,102378.20
2018-05-26T09:52:47.804Z,102376.27
2018-05-26T09:55:14.679Z,102366.34
2018-05-26T09:57:41.463Z,102373.86
2018-05-26T10:00:08.987Z,102372.02
2018-05-26T10:02:35.849Z,102370.78
2018-05-26T10:05:02.714Z,102363.61
2018-05-26T10:07:30.269Z,102371.25
2018-05-26T10:09:57.780Z,102363.58
2018-05-26T10:12:24.560Z,102365.33
2018-05-26T10:14:51.437Z,102365.72
2018-05-26T10:17:18.217Z,102365.03
2018-05-26T10:19:44.990Z,102357.39
2018-05-26T10:22:11.805Z,102363.16
2018-05-26T10:24:38.961Z,102368.05
2018-05-26T10:27:05.783Z,102366.38
2018-05-26T10:29:32.561Z,102357.59
2018-05-26T10:31:59.388Z,102360.95
2018-05-26T10:34:26.176Z,102368.36
2018-05-26T10:36:53.731Z,102364.70
2018-05-26T10:39:21.345Z,102362.70
2018-05-26T10:41:48.172Z,102371.32
2018-05-26T10:44:14.957Z,102370.59
2018-05-26T10:46:41.769Z,102363.03
2018-05-26T10:49:08.544Z,102363.13
2018-05-26T10:51:35.401Z,102358.69
2018-05-26T10:54:03.112Z,102360.77
2018-05-26T10:56:29.884Z,102361.03
2018-05-26T10:58:56.667Z,102359.16
2018-05-26T11:01:23.878Z,102350.30
2018-05-26T11:03:51.507Z,102355.19
2018-05-26T11:06:18.294Z,102354.66
2018-05-26T11:08:45.264Z,102351.64
2018-05-26T11:11:12.792Z,102354.34
2018-05-26T11:13:39.567Z,102359.08
2018-05-26T11:16:06.524Z,102360.90
2018-05-26T11:18:33.302Z,102356.72
2018-05-26T11:21:00.093Z,102363.05
2018-05-26T11:23:27.668Z,102364.27
2018-05-26T11:25:55.180Z,102354.30
2018-05-26T11:28:22.011Z,102363.82
2018-05-26T11:30:48.871Z,102363.40
2018-05-26T11:33:15.697Z,102363.14
2018-05-26T11:35:42.476Z,102360.92
2018-05-26T11:38:09.304Z,102358.24
2018-05-26T11:40:37.135Z,102355.45
2018-05-26T11:43:03.956Z,102358.47
2018-05-26T11:45:36.757Z,102359.80
2018-05-26T11:48:03.536Z,102355.81
2018-05-26T11:50:30.359Z,102340.67
2018-05-26T11:52:57.920Z,102341.31
2018-05-26T11:55:24.706Z,102340.16
2018-05-26T11:57:51.524Z,102333.70
2018-05-26T12:00:18.307Z,102334.34
2018-05-26T12:02:45.868Z,102337.04
2018-05-26T12:05:12.707Z,102339.59
2018-05-26T12:07:40.271Z,102339.78
2018-05-26T12:10:07.787Z,102337.95
2018-05-26T12:12:34.565Z,102339.03
2018-05-26T12:15:02.140Z,102339.17
2018-05-26T12:17:28.993Z,102335.42
2018-05-26T12:19:55.809Z,102332.61
2018-05-26T12:22:22.589Z,102333.44
2018-05-26T12:24:49.372Z,102332.98
2018-05-26T12:27:16.337Z,102322.50
2018-05-26T12:29:43.195Z,102324.74
2018-05-26T12:32:10.707Z,102327.48
2018-05-26T12:34:37.871Z,102330.33
2018-05-26T12:37:04.643Z,102328.51
2018-05-26T12:39:31.455Z,102331.95
2018-05-26T12:41:59.059Z,102321.60
2018-05-26T12:44:26.577Z,102320.57
2018-05-26T12:46:53.399Z,102323.75
2018-05-26T12:49:20.184Z,102319.34
2018-05-26T12:51:47.729Z,102312.52
2018-05-26T12:54:14.619Z,102315.20
2018-05-26T12:56:41.431Z,102309.13
2018-05-26T12:59:08.247Z,102303.07
2018-05-26T13:01:35.069Z,102301.85
2018-05-26T13:04:01.846Z,102302.00
2018-05-26T13:06:28.789Z,102298.66
2018-05-26T13:08:55.595Z,102300.31
2018-05-26T13:11:22.367Z,102299.95
2018-05-26T13:13:49.369Z,102301.66
2018-05-26T13:16:16.889Z,102295.23
2018-05-26T13:18:43.744Z,102302.30
2018-05-26T13:21:10.590Z,102294.50
2018-05-26T13:23:37.361Z,102299.16
2018-05-26T13:26:04.284Z,102286.42
2018-05-26T13:28:31.915Z,102288.17
2018-05-26T13:30:58.764Z,102304.54
2018-05-26T13:33:25.607Z,102296.44
2018-05-26T13:35:52.678Z,102309.20
2018-05-26T13:38:19.455Z,102294.47
2018-05-26T13:40:46.374Z,102291.88
2018-05-26T13:43:13.216Z,102298.60
2018-05-26T13:45:40.751Z,102295.64
2018-05-26T13:48:07.909Z,102291.86
2018-05-26T13:50:34.699Z,102286.91
2018-05-26T13:53:01.516Z,102295.13
2018-05-26T13:57:55.012Z,102297.34
2018-05-26T14:00:22.556Z,102298.03
2018-05-26T14:02:49.517Z,102291.82
2018-05-26T14:05:17.036Z,102279.88
2018-05-26T14:07:43.855Z,102280.74
2018-05-26T14:10:10.698Z,102278.98
2018-05-26T14:12:37.484Z,102279.09
2018-05-26T14:15:04.352Z,102280.78
2018-05-26T14:17:31.880Z,102278.65
2018-05-26T14:19:58.717Z,102279.23
2018-05-26T14:22:25.538Z,102280.68
2018-05-26T14:24:52.316Z,102282.44
2018-05-26T14:27:19.553Z,102281.13
2018-05-26T14:29:46.362Z,102284.86
2018-05-26T14:32:13.194Z,102280.95
2018-05-26T14:34:40.012Z,102283.73
2018-05-26T14:37:06.804Z,102282.14
2018-05-26T14:39:33.634Z,102279.48
2018-05-26T14:42:00.409Z,102280.05
2018-05-26T14:44:28.170Z,102278.14
2018-05-26T14:46:54.961Z,102272.55
2018-05-26T14:49:22.482Z,102277.05
2018-05-26T14:51:49.308Z,102278.91
2018-05-26T14:54:16.116Z,102275.97
2018-05-26T14:56:42.949Z,102272.70
2018-05-26T14:59:10.517Z,102278.92
2018-05-26T15:01:38.053Z,102280.34
2018-05-26T15:04:04.849Z,102278.81
2018-05-26T15:06:31.684Z,102277.34
2018-05-26T15:08:58.529Z,102284.86
2018-05-26T15:11:25.602Z,102275.73
2018-05-26T15:13:52.376Z,102275.67
2018-05-26T15:16:19.264Z,102269.77
2018-05-26T15:18:46.143Z,102262.21
2018-05-26T15:21:13.045Z,102267.59
2018-05-26T15:23:39.868Z,102265.81
2018-05-26T15:26:07.428Z,102261.48
2018-05-26T15:28:35.001Z,102264.25
2018-05-26T15:31:02.597Z,102274.08
2018-05-26T15:33:29.784Z,102272.65
2018-05-26T15:35:56.561Z,102264.13
2018-05-26T15:38:23.352Z,102262.48
2018-05-26T15:40:50.177Z,102258.58
2018-05-26T15:43:16.961Z,102257.02
2018-05-26T15:45:43.988Z,102251.81
2018-05-26T15:48:10.844Z,102248.30
2018-05-26T15:50:37.645Z,102251.05
2018-05-26T15:53:04.456Z,102252.35
2018-05-26T15:55:32.178Z,102257.02
2018-05-26T15:57:59.761Z,102249.95
2018-05-26T16:00:26.561Z,102248.78
2018-05-26T16:02:53.529Z,102249.23
2018-05-26T16:05:20.308Z,102252.06
2018-05-26T16:07:48.933Z,102253.81
2018-05-26T16:10:15.907Z,102251.42
2018-05-26T16:12:42.682Z,102248.95
2018-05-26T16:15:15.668Z,102249.41
2018-05-26T16:17:42.494Z,102245.05
2018-05-26T16:20:09.286Z,102247.39
2018-05-26T16:22:36.171Z,102250.61
2018-05-26T16:25:03.008Z,102251.22
2018-05-26T16:27:29.797Z,102257.73
2018-05-26T16:29:57.391Z,102257.88
2018-05-26T16:32:24.238Z,102259.14
2018-05-26T16:34:51.069Z,102251.80
2018-05-26T16:37:17.871Z,102248.96
2018-05-26T16:39:44.697Z,102253.07
2018-05-26T16:42:11.516Z,102248.53
2018-05-26T16:44:38.489Z,102247.26
2018-05-26T16:47:06.064Z,102245.20
2018-05-26T16:49:32.852Z,102251.32
2018-05-26T16:52:00.041Z,102249.12
2018-05-26T16:54:26.831Z,102251.56
2018-05-26T16:56:54.399Z,102247.27
2018-05-26T16:59:21.272Z,102249.22
2018-05-26T17:01:48.054Z,102255.17
2018-05-26T17:04:14.879Z,102255.97
2018-05-26T17:06:41.674Z,102261.20
2018-05-26T17:09:08.509Z,102262.77
2018-05-26T17:11:35.376Z,102257.48
2018-05-26T17:14:02.186Z,102261.67
2018-05-26T17:16:29.727Z,102257.71
2018-05-26T17:18:56.553Z,102265.11
2018-05-26T17:21:23.336Z,102264.37
2018-05-26T17:23:50.792Z,102265.00
2018-05-26T17:26:18.320Z,102267.92
2018-05-26T17:28:45.127Z,102266.33
2018-05-26T17:31:12.690Z,102269.81
2018-05-26T17:33:39.477Z,102272.67
2018-05-26T17:36:06.314Z,102273.84
2018-05-26T17:38:33.453Z,102277.17
2018-05-26T17:41:00.239Z,102276.16
2018-05-26T17:43:27.777Z,102273.13
2018-05-26T17:45:54.601Z,102274.37
2018-05-26T17:48:21.452Z,102281.07
2018-05-26T17:50:48.232Z,102281.80
2018-05-26T17:53:15.929Z,102285.98
2018-05-26T17:55:42.717Z,102288.16
2018-05-26T17:58:09.549Z,102286.22
2018-05-26T18:00:36.435Z,102285.52
2018-05-26T18:03:03.256Z,102286.03
2018-05-26T18:05:30.829Z,102289.53
2018-05-26T18:07:58.377Z,102286.39
2018-05-26T18:10:25.496Z,102291.76
2018-05-26T18:12:53.073Z,102302.48
2018-05-26T18:15:25.741Z,102301.30
2018-05-26T18:17:52.682Z,102295.62
2018-05-26T18:20:23.373Z,102296.00
2018-05-26T18:22:50.204Z,102296.80
2018-05-26T18:25:17.039Z,102301.34
2018-05-26T18:27:43.929Z,102305.25
2018-05-26T18:30:10.736Z,102302.95
2018-05-26T18:32:38.359Z,102309.75
2018-05-26T18:35:05.183Z,102302.44
2018-05-26T18:37:32.008Z,102312.27
2018-05-26T18:39:59.129Z,102306.84
2018-05-26T18:42:26.655Z,102302.73
2018-05-26T18:44:53.436Z,102307.35
2018-05-26T18:47:21.233Z,102306.48
2018-05-26T18:49:48.069Z,102302.13
2018-05-26T18:52:14.856Z,102310.20
2018-05-26T18:54:41.892Z,102312.75
2018-05-26T18:57:08.682Z,102308.08
2018-05-26T18:59:36.204Z,102313.38
2018-05-26T19:02:03.136Z,102312.72
2018-05-26T19:04:29.930Z,102322.77
2018-05-26T19:06:57.509Z,102323.42
2018-05-26T19:09:24.303Z,102329.09
2018-05-26T19:11:51.084Z,102333.73
2018-05-26T19:14:18.030Z,102339.19
2018-05-26T19:16:45.556Z,102342.16
2018-05-26T19:19:12.376Z,102347.78
2018-05-26T19:21:39.204Z,102353.00
2018-05-26T19:24:06.000Z,102350.25
2018-05-26T19:26:33.033Z,102351.66
2018-05-26T19:28:59.869Z,102350.51
2018-05-26T19:31:26.649Z,102356.48
2018-05-26T19:33:54.214Z,102364.08
2018-05-26T19:36:21.751Z,102364.30
2018-05-26T19:38:48.601Z,102362.34
2018-05-26T19:41:16.191Z,102361.76
2018-05-26T19:43:43.024Z,102364.78
2018-05-26T19:46:10.604Z,102371.53
2018-05-26T19:48:37.387Z,102378.32
2018-05-26T19:51:04.276Z,102378.13
2018-05-26T19:53:31.796Z,102375.56
2018-05-26T19:55:58.607Z,102382.12
2018-05-26T19:58:25.786Z,102379.53
2018-05-26T20:00:52.816Z,102377.95
2018-05-26T20:03:19.639Z,102387.70
2018-05-26T20:05:46.467Z,102385.72
2018-05-26T20:08:14.004Z,102387.92
2018-05-26T20:10:41.231Z,102386.91
2018-05-26T20:13:08.049Z,102391.48
2018-05-26T20:15:34.876Z,102395.64
2018-05-26T20:18:01.761Z,102388.30
2018-05-26T20:20:28.504Z,102383.69
2018-05-26T20:22:55.296Z,102391.04
2018-05-26T20:25:22.857Z,102387.44
2018-05-26T20:27:49.967Z,102379.88
2018-05-26T20:30:20.813Z,102386.64
2018-05-26T20:32:47.641Z,102389.98
2018-05-26T20:35:14.488Z,102388.38
2018-05-26T20:37:42.046Z,102391.52
2018-05-26T20:40:09.101Z,102397.89
2018-05-26T20:42:36.644Z,102405.59
2018-05-26T20:45:03.498Z,102406.72
2018-05-26T20:47:30.330Z,102406.30
2018-05-26T20:49:57.154Z,102409.45
2018-05-26T20:52:23.983Z,102401.37
2018-05-26T20:54:50.832Z,102407.16
2018-05-26T20:57:17.627Z,102403.40
2018-05-26T20:59:44.448Z,102409.67
2018-05-26T21:02:11.607Z,102409.66
2018-05-26T21:04:39.172Z,102411.68
2018-05-26T21:07:05.987Z,102405.08
2018-05-26T21:09:33.881Z,102411.78
2018-05-26T21:12:00.668Z,102413.89
2018-05-26T21:14:28.200Z,102411.82
2018-05-26T21:16:55.096Z,102414.20
2018-05-26T21:19:21.871Z,102418.31
2018-05-26T21:21:48.689Z,102420.44
2018-05-26T21:24:15.479Z,102409.02
2018-05-26T21:26:42.301Z,102418.59
2018-05-26T21:29:09.921Z,102416.41
2018-05-26T21:31:36.732Z,102416.52
2018-05-26T21:34:03.536Z,102414.67
2018-05-26T21:36:30.359Z,102412.06
2018-05-26T21:38:57.148Z,102421.75
2018-05-26T21:41:23.984Z,102430.20
2018-05-26T21:43:50.813Z,102427.70
2018-05-26T21:46:17.605Z,102427.33
2018-05-26T21:48:45.179Z,102435.03
2018-05-26T21:51:11.964Z,102429.77
2018-05-26T21:53:39.943Z,102431.59
2018-05-26T21:56:06.725Z,102435.45
2018-05-26T21:58:34.243Z,102440.41
2018-05-26T22:01:01.088Z,102436.43
2018-05-26T22:03:27.877Z,102445.44
2018-05-26T22:05:54.791Z,102446.14
2018-05-26T22:08:21.568Z,102445.81
2018-05-26T22:10:48.392Z,102444.74
2018-05-26T22:13:15.903Z,102438.28
2018-05-26T22:15:42.776Z,102439.26
2018-05-26T22:18:09.624Z,102439.75
2018-05-26T22:20:36.645Z,102443.22
2018-05-26T22:23:03.461Z,102438.06
2018-05-26T22:25:30.280Z,102439.63
2018-05-26T22:27:57.841Z,102434.60
2018-05-26T22:30:24.676Z,102429.89
2018-05-26T22:32:51.492Z,102428.33
2018-05-26T22:35:18.288Z,102425.41
2018-05-26T22:37:45.113Z,102434.71
2018-05-26T22:40:12.740Z,102435.83
2018-05-26T22:42:40.312Z,102434.09
2018-05-26T22:45:07.139Z,102431.05
2018-05-26T22:47:34.300Z,102429.59
2018-05-26T22:50:01.078Z,102432.61
2018-05-26T22:52:28.606Z,102433.17
2018-05-26T22:54:56.199Z,102435.31
2018-05-26T22:57:23.717Z,102433.70
2018-05-26T22:59:50.512Z,102435.11
2018-05-26T23:02:18.434Z,102429.77
2018-05-26T23:04:45.232Z,102430.31
2018-05-26T23:07:12.068Z,102427.82
2018-05-26T23:09:39.873Z,102430.56
2018-05-26T23:12:06.652Z,102430.69
2018-05-26T23:14:33.472Z,102431.03
2018-05-26T23:17:00.260Z,102436.52
2018-05-26T23:19:27.125Z,102432.39
2018-05-26T23:21:53.901Z,102437.45
2018-05-26T23:24:20.803Z,102435.59
2018-05-26T23:26:47.575Z,102438.09
2018-05-26T23:29:14.400Z,102432.17
2018-05-26T23:31:41.235Z,102432.61
2018-05-26T23:34:08.061Z,102435.55
2018-05-26T23:36:35.579Z,102432.24
2018-05-26T23:39:02.476Z,102427.98
2018-05-26T23:41:30.028Z,102427.14
2018-05-26T23:43:56.852Z,102422.31
2018-05-26T23:46:23.682Z,102425.83
2018-05-26T23:48:50.494Z,102425.47
2018-05-26T23:51:17.275Z,102422.30
2018-05-26T23:53:44.859Z,102422.00
2018-05-26T23:56:11.704Z,102410.80
2018-05-26T23:58:39.637Z,102398.81
